Main page
METAR-TAF:

METAR-TAF

Airports :

Perpignan–Rivesaltes Airport

Perpignan, France

latitude: 42-44N, longitude: 002-52E, elevation: 43 m

Current weather observation

The report was made 21 minutes ago, at 16:30 UTC
Wind 7 kt from the Southeast
Temperature 17°C
Humidity 88%
Pressure 1006 hPa
Visibility 10 km or more
no clouds below 1500 m and no cumulonimbus

METAR: LFMP 231630Z AUTO 13007KT CAVOK 17/15 Q1006 BECMG SHRA BKN012 BKN050

Time: 18:51 (16:51 UTC)

Forecast

The report was made 2 hours and 51 minutes ago, at 14:00 UTC
Forecast valid from 23 at 15 UTC to 24 at 15 UTC
Wind 10 kt from the Southeast
Visibility 10 km or more
Broken clouds at a height of 1200 ft
Broken clouds at a height of 5000 ft
rain showers
Becoming
from 23 at 20 UTC to 23 at 22 UTC
Wind 10 kt from the West
Visibility 10 km or more

TAF: LFMP 231400Z 2315/2415 14010KT 9999 SHRA BKN012 BKN050 BECMG 2320/2322 27010KT 9999 NSW NSC

Weather observations and forecasts of more than 4000 airports (METAR and TAF reports).

The available stations are represented by yellow and red dots on the map.

Hover mouse over dot to see the name of the station.

Then click to see weather observations and forecasts.

To change the map : click on the green buttons with a black cross to zoom in, on the green button with a dash to zoom out, or on the green arrows for adjacent maps.


METAR-TAF: